createdAt,value
2023-03-15T00:02:25.109Z,4.00
2023-03-15T00:04:54.931Z,4.80
2023-03-15T00:07:25.905Z,4.40
2023-03-15T00:09:54.607Z,4.10
2023-03-15T00:12:25.520Z,5.40
2023-03-15T00:14:53.524Z,5.60
2023-03-15T00:17:22.890Z,5.20
2023-03-15T00:19:51.089Z,5.50
2023-03-15T00:22:19.052Z,4.40
2023-03-15T00:24:46.966Z,4.30
2023-03-15T00:27:14.950Z,4.10
2023-03-15T00:29:43.672Z,5.30
2023-03-15T00:32:11.818Z,5.80
2023-03-15T00:34:40.685Z,7.20
2023-03-15T00:37:08.994Z,8.30
2023-03-15T00:39:37.999Z,8.50
2023-03-15T00:42:09.600Z,8.30
2023-03-15T00:44:38.153Z,5.60
2023-03-15T00:47:06.091Z,2.70
2023-03-15T00:49:34.048Z,1.90
2023-03-15T00:52:03.921Z,2.30
2023-03-15T00:54:34.959Z,2.00
2023-03-15T00:57:03.520Z,2.10
2023-03-15T00:59:35.111Z,2.20
2023-03-15T01:02:04.428Z,2.70
2023-03-15T01:04:32.472Z,2.70
2023-03-15T01:07:00.905Z,2.80
2023-03-15T01:09:28.823Z,2.60
2023-03-15T01:11:56.669Z,2.50
2023-03-15T01:14:24.801Z,1.90
2023-03-15T01:16:53.217Z,2.00
2023-03-15T01:19:21.163Z,1.80
2023-03-15T01:21:49.209Z,1.60
2023-03-15T01:24:18.858Z,1.50
2023-03-15T01:26:46.870Z,1.30
2023-03-15T01:29:15.072Z,1.10
2023-03-15T01:31:43.091Z,1.30
2023-03-15T01:34:11.728Z,1.30
2023-03-15T01:36:40.064Z,1.30
2023-03-15T01:39:07.990Z,1.30
2023-03-15T01:41:44.432Z,1.20
2023-03-15T01:44:15.084Z,1.20
2023-03-15T01:46:44.087Z,1.20
2023-03-15T01:49:35.621Z,1.40
2023-03-15T01:52:09.419Z,1.70
2023-03-15T01:54:57.956Z,1.20
2023-03-15T01:57:32.846Z,1.30
2023-03-15T02:00:11.457Z,1.40
2023-03-15T02:02:57.968Z,1.90
2023-03-15T02:05:32.604Z,1.80
2023-03-15T02:08:02.694Z,1.40
2023-03-15T02:10:41.108Z,2.10
2023-03-15T02:15:37.557Z,2.10
2023-03-15T02:18:07.503Z,2.00
2023-03-15T02:20:48.867Z,2.30
2023-03-15T02:23:20.541Z,1.70
2023-03-15T02:25:54.540Z,2.10
2023-03-15T02:31:05.374Z,2.60
2023-03-15T02:33:46.563Z,2.00
2023-03-15T02:36:19.949Z,2.50
2023-03-15T02:38:47.437Z,3.20
2023-03-15T02:41:24.097Z,3.00
2023-03-15T02:43:56.821Z,2.70
2023-03-15T02:46:24.050Z,3.20
2023-03-15T02:48:53.676Z,3.50
2023-03-15T02:51:23.073Z,3.30
2023-03-15T02:53:50.651Z,3.10
2023-03-15T02:56:19.023Z,3.50
2023-03-15T02:58:46.693Z,3.60
2023-03-15T03:01:14.831Z,3.70
2023-03-15T03:03:42.754Z,3.90
2023-03-15T03:06:10.818Z,3.40
2023-03-15T03:08:38.661Z,3.90
2023-03-15T03:11:06.409Z,4.70
2023-03-15T03:13:33.124Z,3.30
2023-03-15T03:16:01.922Z,3.60
2023-03-15T03:18:35.044Z,3.50
2023-03-15T03:21:04.549Z,3.80
2023-03-15T03:23:33.291Z,3.80
2023-03-15T03:26:00.289Z,3.80
2023-03-15T03:28:29.404Z,3.90
2023-03-15T03:30:57.808Z,3.90
2023-03-15T03:33:24.563Z,4.00
2023-03-15T03:35:51.417Z,4.20
2023-03-15T03:38:18.133Z,3.80
2023-03-15T03:40:49.027Z,4.20
2023-03-15T03:43:16.470Z,4.00
2023-03-15T03:45:43.818Z,4.80
2023-03-15T03:48:10.803Z,3.00
2023-03-15T03:50:37.354Z,3.40
2023-03-15T03:53:03.990Z,3.30
2023-03-15T03:55:33.407Z,3.60
2023-03-15T03:58:00.466Z,3.50
2023-03-15T04:00:36.530Z,3.40
2023-03-15T04:03:03.913Z,3.80
2023-03-15T04:05:33.823Z,3.90
2023-03-15T04:08:00.921Z,4.50
2023-03-15T04:10:34.613Z,3.60
2023-03-15T04:13:01.496Z,4.20
2023-03-15T04:15:28.384Z,3.60
2023-03-15T04:17:57.879Z,3.70
2023-03-15T04:20:33.838Z,4.90
2023-03-15T04:23:01.085Z,4.30
2023-03-15T04:25:54.574Z,4.20
2023-03-15T04:28:39.516Z,3.90
2023-03-15T04:31:27.473Z,4.50
2023-03-15T04:34:12.970Z,4.40
2023-03-15T04:37:00.423Z,3.80
2023-03-15T04:39:34.383Z,3.40
2023-03-15T04:42:25.537Z,3.60
2023-03-15T04:45:07.288Z,3.60
2023-03-15T04:47:43.071Z,4.20
2023-03-15T04:50:24.941Z,3.50
2023-03-15T04:53:01.450Z,3.50
2023-03-15T04:55:45.084Z,3.10
2023-03-15T04:58:22.180Z,3.70
2023-03-15T05:01:10.084Z,4.40
2023-03-15T05:03:49.881Z,3.90
2023-03-15T05:06:55.328Z,3.50
2023-03-15T05:09:39.476Z,3.60
2023-03-15T05:12:33.438Z,4.10
2023-03-15T05:15:15.070Z,4.00
2023-03-15T05:18:04.789Z,3.50
2023-03-15T05:20:47.769Z,3.80
2023-03-15T05:23:33.413Z,4.50
2023-03-15T05:26:14.576Z,4.10
2023-03-15T05:28:56.488Z,3.50
2023-03-15T05:31:46.072Z,4.90
2023-03-15T05:34:31.787Z,3.80
2023-03-15T05:36:59.381Z,4.50
2023-03-15T05:39:47.178Z,3.90
2023-03-15T05:42:34.860Z,4.20
2023-03-15T05:45:20.242Z,4.90
2023-03-15T05:47:49.940Z,3.80
2023-03-15T05:50:40.324Z,3.80
2023-03-15T05:53:16.229Z,4.50
2023-03-15T05:56:03.395Z,4.10
2023-03-15T05:59:08.174Z,4.10
2023-03-15T06:01:34.709Z,3.40
2023-03-15T06:04:09.896Z,4.60
2023-03-15T06:06:36.607Z,4.50
2023-03-15T06:09:05.050Z,4.60
2023-03-15T06:11:31.756Z,4.80
2023-03-15T06:13:58.926Z,4.10
2023-03-15T06:16:33.706Z,4.30
2023-03-15T06:19:02.770Z,4.50
2023-03-15T06:21:30.233Z,4.80
2023-03-15T06:23:56.892Z,4.60
2023-03-15T06:26:23.490Z,3.80
2023-03-15T06:28:53.213Z,4.00
2023-03-15T06:31:19.888Z,5.50
2023-03-15T06:33:50.985Z,5.60
2023-03-15T06:36:17.675Z,5.20
2023-03-15T06:38:44.601Z,5.00
2023-03-15T06:41:14.493Z,4.60
2023-03-15T06:43:41.940Z,4.30
2023-03-15T06:46:08.742Z,4.20
2023-03-15T06:48:35.468Z,4.90
2023-03-15T06:51:05.225Z,4.70
2023-03-15T06:53:32.295Z,4.70
2023-03-15T06:55:58.862Z,5.20
2023-03-15T06:58:25.515Z,4.20
2023-03-15T07:00:52.390Z,4.80
2023-03-15T07:03:20.836Z,4.40
2023-03-15T07:05:51.931Z,5.00
2023-03-15T07:08:18.931Z,4.50
2023-03-15T07:10:46.144Z,5.20
2023-03-15T07:13:13.578Z,3.80
2023-03-15T07:15:40.467Z,4.80
2023-03-15T07:18:07.690Z,4.00
2023-03-15T07:20:37.055Z,4.40
2023-03-15T07:23:04.465Z,4.80
2023-03-15T07:25:33.380Z,4.20
2023-03-15T07:28:02.703Z,4.10
2023-03-15T07:30:29.386Z,4.60
2023-03-15T07:32:56.048Z,3.70
2023-03-15T07:35:22.818Z,4.20
2023-03-15T07:37:49.423Z,4.20
2023-03-15T07:40:16.376Z,3.90
2023-03-15T07:42:43.355Z,3.80
2023-03-15T07:45:10.558Z,4.50
2023-03-15T07:47:37.316Z,3.90
2023-03-15T07:50:05.000Z,4.20
2023-03-15T07:52:32.181Z,4.10
2023-03-15T07:54:58.862Z,4.90
2023-03-15T07:57:27.094Z,4.50
2023-03-15T07:59:55.512Z,4.10
2023-03-15T08:02:22.282Z,4.10
2023-03-15T08:04:50.651Z,3.40
2023-03-15T08:07:17.250Z,4.00
2023-03-15T08:09:44.258Z,3.70
2023-03-15T08:12:11.459Z,4.00
2023-03-15T08:14:38.051Z,3.90
2023-03-15T08:17:04.699Z,3.60
2023-03-15T08:19:32.178Z,4.10
2023-03-15T08:21:58.796Z,3.40
2023-03-15T08:24:26.543Z,4.50
2023-03-15T08:26:53.166Z,3.50
2023-03-15T08:29:19.947Z,3.80
2023-03-15T08:31:46.702Z,3.80
2023-03-15T08:34:13.729Z,3.80
2023-03-15T08:36:41.205Z,3.40
2023-03-15T08:39:08.062Z,3.50
2023-03-15T08:41:34.709Z,3.80
2023-03-15T08:44:01.318Z,3.40
2023-03-15T08:46:27.959Z,3.40
2023-03-15T08:48:54.691Z,4.10
2023-03-15T08:51:21.275Z,4.10
2023-03-15T08:53:47.917Z,3.50
2023-03-15T08:56:14.503Z,4.00
2023-03-15T08:58:41.160Z,4.00
2023-03-15T09:01:10.501Z,3.20
2023-03-15T09:03:37.136Z,4.10
2023-03-15T09:06:03.978Z,3.60
2023-03-15T09:08:32.760Z,3.10
2023-03-15T09:11:01.132Z,2.90
2023-03-15T09:13:28.559Z,2.70
2023-03-15T09:15:56.570Z,3.50
2023-03-15T09:18:23.912Z,4.00
2023-03-15T09:20:50.658Z,3.40
2023-03-15T09:23:17.246Z,3.00
2023-03-15T09:25:43.826Z,2.60
2023-03-15T09:28:11.059Z,2.70
2023-03-15T09:30:39.149Z,3.00
2023-03-15T09:33:06.902Z,3.10
2023-03-15T09:35:33.857Z,2.50
2023-03-15T09:38:00.817Z,2.80
2023-03-15T09:40:33.203Z,2.70
2023-03-15T09:43:06.355Z,2.30
2023-03-15T09:45:44.275Z,2.60
2023-03-15T09:48:37.663Z,3.60
2023-03-15T09:51:11.517Z,3.30
2023-03-15T09:53:53.915Z,2.90
2023-03-15T09:56:35.968Z,2.80
2023-03-15T09:59:03.344Z,2.20
2023-03-15T10:01:41.383Z,3.50
2023-03-15T10:04:18.267Z,3.00
2023-03-15T10:06:51.741Z,3.00
2023-03-15T10:09:22.735Z,2.30
2023-03-15T10:12:15.177Z,2.60
2023-03-15T10:15:06.460Z,2.70
2023-03-15T10:17:45.319Z,2.20
2023-03-15T10:20:18.318Z,2.30
2023-03-15T10:23:11.801Z,1.70
2023-03-15T10:25:40.549Z,1.70
2023-03-15T10:28:07.100Z,1.90
2023-03-15T10:30:36.190Z,2.30
2023-03-15T10:33:33.857Z,2.50
2023-03-15T10:36:11.042Z,3.00
2023-03-15T10:38:40.228Z,2.30
2023-03-15T10:41:07.242Z,2.30
2023-03-15T10:43:36.729Z,2.90
2023-03-15T10:46:10.656Z,2.50
2023-03-15T10:49:08.560Z,2.70
2023-03-15T10:51:44.340Z,3.10
2023-03-15T10:54:20.523Z,2.60
2023-03-15T10:56:59.314Z,2.00
2023-03-15T10:59:31.635Z,2.80
2023-03-15T11:02:27.135Z,2.90
2023-03-15T11:05:15.723Z,2.70
2023-03-15T11:07:57.095Z,2.90
2023-03-15T11:10:26.452Z,2.30
2023-03-15T11:13:13.216Z,2.90
2023-03-15T11:15:47.471Z,2.90
2023-03-15T11:18:19.980Z,2.10
2023-03-15T11:20:46.780Z,2.20
2023-03-15T11:23:25.808Z,2.90
2023-03-15T11:25:53.111Z,2.50
2023-03-15T11:28:27.295Z,3.90
2023-03-15T11:30:57.095Z,2.00
2023-03-15T11:33:40.044Z,2.60
2023-03-15T11:36:22.125Z,2.70
2023-03-15T11:38:49.437Z,3.30
2023-03-15T11:41:36.531Z,3.00
2023-03-15T11:44:16.307Z,2.30
2023-03-15T11:46:52.251Z,2.00
2023-03-15T11:49:34.622Z,2.10
2023-03-15T11:52:01.843Z,2.30
2023-03-15T11:54:31.516Z,3.00
2023-03-15T11:57:02.744Z,2.10
2023-03-15T11:59:31.959Z,2.80
2023-03-15T12:02:14.182Z,2.70
2023-03-15T12:04:46.037Z,2.40
2023-03-15T12:07:19.033Z,2.20
2023-03-15T12:09:56.082Z,2.60
2023-03-15T12:12:25.805Z,2.10
2023-03-15T12:15:18.353Z,2.10
2023-03-15T12:17:55.528Z,2.20
2023-03-15T12:20:42.369Z,2.40
2023-03-15T12:23:14.752Z,3.00
2023-03-15T12:25:54.948Z,2.10
2023-03-15T12:28:45.367Z,2.40
2023-03-15T12:31:13.652Z,1.50
2023-03-15T12:33:52.646Z,2.40
2023-03-15T12:36:25.993Z,1.80
2023-03-15T12:38:59.198Z,2.80
2023-03-15T12:41:40.815Z,2.90
2023-03-15T12:44:25.711Z,2.10
2023-03-15T12:46:54.866Z,2.50
2023-03-15T12:49:24.524Z,2.40
2023-03-15T12:51:55.655Z,2.30
2023-03-15T12:54:29.968Z,2.30
2023-03-15T12:57:03.158Z,2.40
2023-03-15T12:59:34.704Z,2.50
2023-03-15T13:02:08.139Z,2.10
2023-03-15T13:04:35.319Z,2.60
2023-03-15T13:07:15.682Z,2.20
2023-03-15T13:09:48.806Z,2.80
2023-03-15T13:12:31.067Z,2.40
2023-03-15T13:15:01.508Z,2.40
2023-03-15T13:17:28.135Z,2.30
2023-03-15T13:20:37.887Z,2.00
2023-03-15T13:23:20.900Z,2.80
2023-03-15T13:25:59.221Z,2.60
2023-03-15T13:28:39.799Z,2.90
2023-03-15T13:31:16.791Z,2.60
2023-03-15T13:33:48.136Z,2.90
2023-03-15T13:36:20.122Z,3.30
2023-03-15T13:38:50.503Z,3.20
2023-03-15T13:41:26.060Z,2.30
2023-03-15T13:43:56.388Z,2.60
2023-03-15T13:46:25.994Z,2.50
2023-03-15T13:48:55.536Z,2.30
2023-03-15T13:51:29.766Z,2.60
2023-03-15T13:54:17.964Z,3.20
2023-03-15T13:57:12.535Z,2.40
2023-03-15T13:59:52.092Z,3.80
2023-03-15T14:02:35.948Z,2.40
2023-03-15T14:05:08.699Z,2.60
2023-03-15T14:07:41.001Z,2.40
2023-03-15T14:10:34.264Z,2.00
2023-03-15T14:13:24.694Z,3.70
2023-03-15T14:16:06.620Z,2.80
2023-03-15T14:18:37.173Z,1.90
2023-03-15T14:21:06.896Z,1.80
2023-03-15T14:23:40.451Z,1.60
2023-03-15T14:26:29.243Z,2.50
2023-03-15T14:29:09.843Z,2.00
2023-03-15T14:31:41.006Z,2.20
2023-03-15T14:34:16.912Z,2.50
2023-03-15T14:36:45.009Z,3.00
2023-03-15T14:39:39.335Z,2.60
2023-03-15T14:42:09.456Z,3.00
2023-03-15T14:44:36.265Z,3.70
2023-03-15T14:47:14.236Z,2.90
2023-03-15T14:49:41.045Z,2.80
2023-03-15T14:52:11.991Z,3.00
2023-03-15T14:54:44.659Z,3.00
2023-03-15T14:57:11.390Z,3.10
2023-03-15T14:59:37.978Z,4.60
2023-03-15T15:02:05.784Z,4.30
2023-03-15T15:04:33.642Z,3.40
2023-03-15T15:07:02.393Z,3.50
2023-03-15T15:09:30.416Z,3.30
2023-03-15T15:11:56.981Z,3.40
2023-03-15T15:14:23.689Z,4.50
2023-03-15T15:16:51.402Z,4.80
2023-03-15T15:19:17.987Z,3.60
2023-03-15T15:21:44.953Z,4.10
2023-03-15T15:24:18.992Z,4.10
2023-03-15T15:26:46.703Z,3.50
2023-03-15T15:29:15.786Z,3.80
2023-03-15T15:31:44.059Z,3.00
2023-03-15T15:34:11.718Z,4.10
2023-03-15T15:36:42.513Z,4.10
2023-03-15T15:39:29.194Z,4.00
2023-03-15T15:41:56.061Z,3.40
2023-03-15T15:44:26.882Z,3.70
2023-03-15T15:46:53.597Z,4.00
2023-03-15T15:49:20.446Z,4.60
2023-03-15T15:51:51.404Z,5.30
2023-03-15T15:54:22.382Z,4.70
2023-03-15T15:56:52.553Z,4.30
2023-03-15T15:59:19.240Z,4.80
2023-03-15T16:02:00.158Z,3.90
2023-03-15T16:04:28.487Z,3.60
2023-03-15T16:06:58.551Z,5.30
2023-03-15T16:09:27.492Z,4.10
2023-03-15T16:11:54.577Z,4.70
2023-03-15T16:14:21.243Z,3.80
2023-03-15T16:16:48.602Z,4.10
2023-03-15T16:25:27.501Z,4.60
2023-03-15T16:27:56.594Z,5.10
2023-03-15T16:30:26.951Z,5.00
2023-03-15T16:32:57.825Z,4.70
2023-03-15T16:35:36.502Z,4.90
2023-03-15T16:38:06.936Z,4.30
2023-03-15T16:40:41.223Z,4.70
2023-03-15T16:43:12.116Z,5.00
2023-03-15T16:45:41.377Z,5.90
2023-03-15T16:48:09.476Z,5.60
2023-03-15T16:50:37.964Z,6.20
2023-03-15T16:53:08.592Z,5.90
2023-03-15T16:55:37.450Z,6.10
2023-03-15T16:58:15.970Z,6.10
2023-03-15T17:00:46.666Z,6.10
2023-03-15T17:03:16.184Z,6.20
2023-03-15T17:05:47.719Z,6.50
2023-03-15T17:08:20.803Z,6.80
2023-03-15T17:10:49.475Z,6.40
2023-03-15T17:13:24.894Z,6.70
2023-03-15T17:15:52.988Z,6.80
2023-03-15T17:18:23.197Z,6.00
2023-03-15T17:20:51.239Z,7.50
2023-03-15T17:23:21.263Z,8.00
2023-03-15T17:25:49.603Z,7.40
2023-03-15T17:28:17.935Z,8.00
2023-03-15T17:30:46.132Z,10.40
2023-03-15T17:33:14.452Z,12.40
2023-03-15T17:35:53.997Z,13.20
2023-03-15T17:38:25.523Z,21.50
2023-03-15T17:40:54.458Z,16.10
2023-03-15T17:43:22.693Z,11.70
2023-03-15T17:45:52.480Z,10.10
2023-03-15T17:48:20.847Z,10.60
2023-03-15T17:50:49.042Z,11.00
2023-03-15T17:53:21.353Z,11.90
2023-03-15T17:55:49.455Z,10.80
2023-03-15T17:58:22.975Z,12.30
2023-03-15T18:00:54.715Z,11.70
2023-03-15T18:03:24.886Z,11.80
2023-03-15T18:05:53.243Z,12.10
2023-03-15T18:08:21.671Z,11.20
2023-03-15T18:10:52.105Z,11.60
2023-03-15T18:13:23.493Z,12.10
2023-03-15T18:15:53.653Z,12.50
2023-03-15T18:18:21.640Z,12.30
2023-03-15T18:20:49.785Z,12.20
2023-03-15T18:23:18.963Z,15.10
2023-03-15T18:25:48.261Z,16.00
2023-03-15T18:28:16.223Z,17.10
2023-03-15T18:30:45.375Z,17.60
2023-03-15T18:33:15.678Z,19.60
2023-03-15T18:35:43.836Z,19.50
2023-03-15T18:38:12.107Z,21.20
2023-03-15T18:40:40.043Z,23.10
2023-03-15T18:43:14.177Z,23.30
2023-03-15T18:45:42.324Z,22.60
2023-03-15T18:48:11.330Z,23.60
2023-03-15T18:50:39.566Z,24.10
2023-03-15T18:53:08.027Z,25.40
2023-03-15T18:55:36.095Z,29.20
2023-03-15T18:58:08.828Z,30.90
2023-03-15T19:00:36.937Z,31.70
2023-03-15T19:03:06.433Z,30.00
2023-03-15T19:05:37.632Z,29.40
2023-03-15T19:08:05.913Z,26.80
2023-03-15T19:10:34.408Z,29.30
2023-03-15T19:13:04.438Z,31.50
2023-03-15T19:15:32.695Z,30.70
2023-03-15T19:18:02.090Z,30.40
2023-03-15T19:20:30.491Z,26.60
2023-03-15T19:23:00.889Z,27.50
2023-03-15T19:25:28.859Z,27.90
2023-03-15T19:27:57.517Z,25.70
2023-03-15T19:30:26.465Z,26.70
2023-03-15T19:32:55.052Z,25.30
2023-03-15T19:35:23.204Z,24.20
2023-03-15T19:37:52.087Z,23.40
2023-03-15T19:40:20.787Z,22.80
2023-03-15T19:42:49.750Z,21.60
2023-03-15T19:45:18.546Z,21.20
2023-03-15T19:47:47.198Z,25.20
2023-03-15T19:50:15.905Z,21.20
2023-03-15T19:52:47.903Z,22.60
2023-03-15T19:55:18.083Z,22.20
2023-03-15T19:57:46.166Z,21.40
2023-03-15T20:00:16.485Z,20.90
2023-03-15T20:02:45.476Z,19.50
2023-03-15T20:05:17.000Z,20.30
2023-03-15T20:07:46.257Z,18.30
2023-03-15T20:10:14.728Z,19.60
2023-03-15T20:12:43.119Z,19.20
2023-03-15T20:15:17.749Z,20.00
2023-03-15T20:17:46.031Z,20.90
2023-03-15T20:20:14.777Z,21.30
2023-03-15T20:22:44.741Z,19.70
2023-03-15T20:25:13.999Z,19.10
2023-03-15T20:27:42.338Z,18.90
2023-03-15T20:30:12.797Z,18.20
2023-03-15T20:32:41.553Z,18.60
2023-03-15T20:35:10.150Z,20.40
2023-03-15T20:37:42.977Z,19.70
2023-03-15T20:40:15.270Z,19.30
2023-03-15T20:42:43.844Z,20.20
2023-03-15T20:45:13.917Z,21.60
2023-03-15T20:47:42.189Z,22.90
2023-03-15T20:50:11.334Z,19.90
2023-03-15T20:52:39.548Z,19.70
2023-03-15T20:55:08.164Z,18.50
2023-03-15T20:57:42.196Z,19.90
2023-03-15T21:00:12.977Z,22.80
2023-03-15T21:02:41.233Z,23.50
2023-03-15T21:05:10.384Z,25.20
2023-03-15T21:07:39.093Z,24.20
2023-03-15T21:10:07.568Z,32.00
2023-03-15T21:12:36.006Z,23.60
2023-03-15T21:15:04.235Z,22.80
2023-03-15T21:17:32.560Z,20.40
2023-03-15T21:20:01.060Z,21.90
2023-03-15T21:22:29.107Z,39.30
2023-03-15T21:24:57.094Z,26.00
2023-03-15T21:27:26.352Z,21.70
2023-03-15T21:29:54.605Z,19.20
2023-03-15T21:32:22.811Z,26.60
2023-03-15T21:34:51.250Z,20.40
2023-03-15T21:37:19.365Z,17.60
2023-03-15T21:39:47.423Z,18.20
2023-03-15T21:42:15.569Z,20.00
2023-03-15T21:44:43.500Z,20.70
2023-03-15T21:47:11.638Z,20.30
2023-03-15T21:49:44.733Z,22.10
2023-03-15T21:52:16.279Z,16.70
2023-03-15T21:54:44.972Z,19.30
2023-03-15T21:57:13.198Z,19.70
2023-03-15T21:59:41.207Z,18.10
2023-03-15T22:02:11.081Z,16.50
2023-03-15T22:04:43.266Z,16.70
2023-03-15T22:07:11.426Z,17.20
2023-03-15T22:09:41.322Z,16.80
2023-03-15T22:12:09.846Z,15.30
2023-03-15T22:14:37.972Z,15.60
2023-03-15T22:17:06.042Z,15.50
2023-03-15T22:19:34.236Z,15.10
2023-03-15T22:22:02.305Z,15.00
2023-03-15T22:24:30.467Z,14.60
2023-03-15T22:26:58.403Z,16.50
2023-03-15T22:29:26.509Z,15.10
2023-03-15T22:31:54.459Z,14.90
2023-03-15T22:34:22.444Z,15.50
2023-03-15T22:36:50.415Z,15.90
2023-03-15T22:39:18.360Z,14.70
2023-03-15T22:41:46.264Z,15.90
2023-03-15T22:44:14.885Z,15.90
2023-03-15T22:46:42.893Z,14.40
2023-03-15T22:49:11.015Z,15.50
2023-03-15T22:51:40.805Z,14.80
2023-03-15T22:54:09.249Z,15.50
2023-03-15T22:56:39.937Z,15.20
2023-03-15T22:59:08.983Z,16.00
2023-03-15T23:01:37.005Z,14.40
2023-03-15T23:04:05.036Z,16.20
2023-03-15T23:06:33.059Z,16.50
2023-03-15T23:09:00.967Z,17.00
2023-03-15T23:11:28.890Z,14.40
2023-03-15T23:13:56.918Z,16.40
2023-03-15T23:16:25.012Z,14.60
2023-03-15T23:28:02.003Z,15.80
2023-03-15T23:30:35.543Z,15.60
2023-03-15T23:33:04.272Z,17.40
2023-03-15T23:35:32.389Z,16.50
2023-03-15T23:38:00.385Z,16.70
2023-03-15T23:40:30.089Z,17.90
2023-03-15T23:43:00.799Z,18.40
2023-03-15T23:45:30.180Z,17.40
2023-03-15T23:47:58.686Z,20.20
2023-03-15T23:50:27.138Z,16.00
2023-03-15T23:52:56.385Z,19.90
2023-03-15T23:55:24.720Z,21.00
2023-03-15T23:57:52.786Z,22.30
